sensor_id;sensor_type;location;lat;lon;timestamp;pressure;altitude;pressure_sealevel;temperature;humidity
14117;BME280;7137;51.436;6.544;2023-07-09T00:02:36;101313.94;;;25.86;57.56
14117;BME280;7137;51.436;6.544;2023-07-09T00:05:38;101307.47;;;25.67;58.89
14117;BME280;7137;51.436;6.544;2023-07-09T00:08:43;101314.75;;;25.77;58.19
14117;BME280;7137;51.436;6.544;2023-07-09T00:11:47;101310.25;;;25.77;57.71
14117;BME280;7137;51.436;6.544;2023-07-09T00:14:49;101313.16;;;25.74;58.60
14117;BME280;7137;51.436;6.544;2023-07-09T00:17:50;101309.19;;;25.68;58.81
14117;BME280;7137;51.436;6.544;2023-07-09T00:20:52;101314.06;;;25.63;58.44
14117;BME280;7137;51.436;6.544;2023-07-09T00:23:55;101311.53;;;25.62;58.80
14117;BME280;7137;51.436;6.544;2023-07-09T00:26:56;101316.13;;;25.60;59.24
14117;BME280;7137;51.436;6.544;2023-07-09T00:29:58;101312.03;;;25.56;59.38
14117;BME280;7137;51.436;6.544;2023-07-09T00:33:00;101316.66;;;25.54;59.54
14117;BME280;7137;51.436;6.544;2023-07-09T00:36:01;101310.38;;;25.43;60.31
14117;BME280;7137;51.436;6.544;2023-07-09T00:39:13;101313.97;;;25.33;60.81
14117;BME280;7137;51.436;6.544;2023-07-09T00:42:17;101307.53;;;25.35;60.93
14117;BME280;7137;51.436;6.544;2023-07-09T00:45:22;101316.06;;;25.29;60.96
14117;BME280;7137;51.436;6.544;2023-07-09T00:48:24;101308.69;;;25.22;60.94
14117;BME280;7137;51.436;6.544;2023-07-09T00:51:28;101308.38;;;25.36;61.28
14117;BME280;7137;51.436;6.544;2023-07-09T00:54:36;101303.16;;;25.34;60.98
14117;BME280;7137;51.436;6.544;2023-07-09T00:57:39;101313.91;;;25.23;61.13
14117;BME280;7137;51.436;6.544;2023-07-09T01:00:45;101309.78;;;25.19;62.10
14117;BME280;7137;51.436;6.544;2023-07-09T01:03:51;101309.84;;;25.08;62.30
14117;BME280;7137;51.436;6.544;2023-07-09T01:06:56;101312.75;;;25.05;62.81
14117;BME280;7137;51.436;6.544;2023-07-09T01:09:59;101306.69;;;25.03;63.23
14117;BME280;7137;51.436;6.544;2023-07-09T01:13:00;101317.28;;;24.93;63.70
14117;BME280;7137;51.436;6.544;2023-07-09T01:16:03;101309.13;;;24.95;64.13
14117;BME280;7137;51.436;6.544;2023-07-09T01:19:05;101310.56;;;24.99;63.98
14117;BME280;7137;51.436;6.544;2023-07-09T01:22:09;101309.38;;;24.92;64.29
14117;BME280;7137;51.436;6.544;2023-07-09T01:25:11;101312.28;;;24.88;64.30
14117;BME280;7137;51.436;6.544;2023-07-09T01:28:13;101315.47;;;24.82;63.72
14117;BME280;7137;51.436;6.544;2023-07-09T01:31:18;101313.91;;;24.80;64.16
14117;BME280;7137;51.436;6.544;2023-07-09T01:34:20;101310.72;;;24.75;64.42
14117;BME280;7137;51.436;6.544;2023-07-09T01:37:26;101313.91;;;24.69;63.72
14117;BME280;7137;51.436;6.544;2023-07-09T01:40:28;101320.25;;;24.68;64.45
14117;BME280;7137;51.436;6.544;2023-07-09T01:43:31;101318.91;;;24.62;64.93
14117;BME280;7137;51.436;6.544;2023-07-09T01:46:33;101316.34;;;24.61;64.58
14117;BME280;7137;51.436;6.544;2023-07-09T01:49:34;101319.53;;;24.54;65.18
14117;BME280;7137;51.436;6.544;2023-07-09T01:52:40;101312.13;;;24.47;65.07
14117;BME280;7137;51.436;6.544;2023-07-09T01:55:44;101319.28;;;24.46;65.35
14117;BME280;7137;51.436;6.544;2023-07-09T01:58:45;101323.78;;;24.46;66.04
14117;BME280;7137;51.436;6.544;2023-07-09T02:01:47;101320.03;;;24.37;66.62
14117;BME280;7137;51.436;6.544;2023-07-09T02:04:52;101309.31;;;24.26;66.24
14117;BME280;7137;51.436;6.544;2023-07-09T02:07:55;101316.09;;;24.19;66.30
14117;BME280;7137;51.436;6.544;2023-07-09T02:10:57;101306.66;;;24.15;67.23
14117;BME280;7137;51.436;6.544;2023-07-09T02:13:58;101311.38;;;24.11;67.18
14117;BME280;7137;51.436;6.544;2023-07-09T02:17:00;101309.06;;;24.07;67.74
14117;BME280;7137;51.436;6.544;2023-07-09T02:20:01;101307.16;;;24.09;67.98
14117;BME280;7137;51.436;6.544;2023-07-09T02:23:06;101304.09;;;24.02;67.72
14117;BME280;7137;51.436;6.544;2023-07-09T02:26:08;101314.16;;;23.98;68.35
14117;BME280;7137;51.436;6.544;2023-07-09T02:29:10;101309.41;;;23.91;68.53
14117;BME280;7137;51.436;6.544;2023-07-09T02:32:17;101312.84;;;23.93;67.95
14117;BME280;7137;51.436;6.544;2023-07-09T02:35:19;101309.78;;;23.86;67.93
14117;BME280;7137;51.436;6.544;2023-07-09T02:38:21;101317.06;;;23.84;69.32
14117;BME280;7137;51.436;6.544;2023-07-09T02:41:23;101315.47;;;23.82;69.39
14117;BME280;7137;51.436;6.544;2023-07-09T02:44:25;101318.28;;;23.80;69.33
14117;BME280;7137;51.436;6.544;2023-07-09T02:47:26;101321.03;;;23.79;69.15
14117;BME280;7137;51.436;6.544;2023-07-09T02:50:28;101328.81;;;23.82;68.39
14117;BME280;7137;51.436;6.544;2023-07-09T02:53:31;101324.66;;;23.78;68.38
14117;BME280;7137;51.436;6.544;2023-07-09T02:56:33;101332.69;;;23.66;68.67
14117;BME280;7137;51.436;6.544;2023-07-09T02:59:35;101332.56;;;23.68;69.87
14117;BME280;7137;51.436;6.544;2023-07-09T03:02:36;101325.84;;;23.62;70.17
14117;BME280;7137;51.436;6.544;2023-07-09T03:05:38;101332.16;;;23.61;70.52
14117;BME280;7137;51.436;6.544;2023-07-09T03:08:41;101337.72;;;23.58;70.32
14117;BME280;7137;51.436;6.544;2023-07-09T03:11:42;101345.63;;;23.60;69.96
14117;BME280;7137;51.436;6.544;2023-07-09T03:14:47;101348.00;;;23.52;70.88
14117;BME280;7137;51.436;6.544;2023-07-09T03:17:49;101350.22;;;23.58;71.01
14117;BME280;7137;51.436;6.544;2023-07-09T03:20:51;101353.50;;;23.61;71.14
14117;BME280;7137;51.436;6.544;2023-07-09T03:23:55;101344.06;;;23.45;71.52
14117;BME280;7137;51.436;6.544;2023-07-09T03:26:57;101348.22;;;23.49;71.17
14117;BME280;7137;51.436;6.544;2023-07-09T03:29:58;101351.91;;;23.35;70.54
14117;BME280;7137;51.436;6.544;2023-07-09T03:33:00;101353.59;;;23.36;71.64
14117;BME280;7137;51.436;6.544;2023-07-09T03:36:05;101346.13;;;23.41;70.91
14117;BME280;7137;51.436;6.544;2023-07-09T03:39:08;101350.25;;;23.45;71.34
14117;BME280;7137;51.436;6.544;2023-07-09T03:42:10;101354.47;;;23.36;71.49
14117;BME280;7137;51.436;6.544;2023-07-09T03:45:11;101359.91;;;23.35;71.68
14117;BME280;7137;51.436;6.544;2023-07-09T03:48:14;101350.75;;;23.39;72.57
14117;BME280;7137;51.436;6.544;2023-07-09T03:51:16;101355.72;;;23.44;71.35
14117;BME280;7137;51.436;6.544;2023-07-09T03:54:19;101356.56;;;23.44;71.41
14117;BME280;7137;51.436;6.544;2023-07-09T03:57:20;101359.72;;;23.49;71.55
14117;BME280;7137;51.436;6.544;2023-07-09T04:00:23;101356.97;;;23.51;70.89
14117;BME280;7137;51.436;6.544;2023-07-09T04:03:25;101352.25;;;23.54;71.03
14117;BME280;7137;51.436;6.544;2023-07-09T04:06:26;101356.56;;;23.68;71.17
14117;BME280;7137;51.436;6.544;2023-07-09T04:09:29;101356.81;;;23.76;70.26
14117;BME280;7137;51.436;6.544;2023-07-09T04:12:31;101359.03;;;23.82;69.88
14117;BME280;7137;51.436;6.544;2023-07-09T04:15:32;101352.97;;;23.91;69.31
14117;BME280;7137;51.436;6.544;2023-07-09T04:18:34;101352.97;;;23.91;68.77
14117;BME280;7137;51.436;6.544;2023-07-09T04:21:36;101349.22;;;23.94;68.82
14117;BME280;7137;51.436;6.544;2023-07-09T04:24:39;101359.53;;;23.98;69.55
14117;BME280;7137;51.436;6.544;2023-07-09T04:27:41;101360.75;;;24.06;68.66
14117;BME280;7137;51.436;6.544;2023-07-09T04:30:46;101353.38;;;24.09;68.42
14117;BME280;7137;51.436;6.544;2023-07-09T04:33:49;101350.69;;;24.20;68.22
14117;BME280;7137;51.436;6.544;2023-07-09T04:36:53;101352.44;;;24.21;67.85
14117;BME280;7137;51.436;6.544;2023-07-09T04:39:57;101360.53;;;24.20;68.13
14117;BME280;7137;51.436;6.544;2023-07-09T04:42:58;101357.91;;;24.31;67.84
14117;BME280;7137;51.436;6.544;2023-07-09T04:46:00;101357.66;;;24.34;68.10
14117;BME280;7137;51.436;6.544;2023-07-09T04:49:01;101356.94;;;24.43;67.54
14117;BME280;7137;51.436;6.544;2023-07-09T04:52:04;101359.72;;;24.53;67.54
14117;BME280;7137;51.436;6.544;2023-07-09T04:55:08;101359.22;;;24.59;67.71
14117;BME280;7137;51.436;6.544;2023-07-09T04:58:09;101354.47;;;24.63;67.34
14117;BME280;7137;51.436;6.544;2023-07-09T05:01:11;101358.63;;;24.67;67.38
14117;BME280;7137;51.436;6.544;2023-07-09T05:04:13;101354.22;;;24.77;66.70
14117;BME280;7137;51.436;6.544;2023-07-09T05:07:14;101355.81;;;24.79;66.87
14117;BME280;7137;51.436;6.544;2023-07-09T05:10:18;101365.53;;;24.92;66.53
14117;BME280;7137;51.436;6.544;2023-07-09T05:13:20;101352.34;;;25.00;66.17
14117;BME280;7137;51.436;6.544;2023-07-09T05:16:21;101357.19;;;25.17;65.98
14117;BME280;7137;51.436;6.544;2023-07-09T05:19:23;101362.06;;;25.23;65.84
14117;BME280;7137;51.436;6.544;2023-07-09T05:22:24;101358.94;;;25.39;65.07
14117;BME280;7137;51.436;6.544;2023-07-09T05:25:27;101365.34;;;25.48;64.54
14117;BME280;7137;51.436;6.544;2023-07-09T05:28:30;101362.59;;;25.70;64.44
14117;BME280;7137;51.436;6.544;2023-07-09T05:31:33;101358.44;;;25.77;63.74
14117;BME280;7137;51.436;6.544;2023-07-09T05:34:36;101356.97;;;25.94;62.85
14117;BME280;7137;51.436;6.544;2023-07-09T05:37:38;101362.03;;;26.18;62.20
14117;BME280;7137;51.436;6.544;2023-07-09T05:40:41;101357.81;;;26.46;61.68
14117;BME280;7137;51.436;6.544;2023-07-09T05:43:43;101372.88;;;27.17;59.13
14117;BME280;7137;51.436;6.544;2023-07-09T05:46:44;101368.00;;;28.08;54.82
14117;BME280;7137;51.436;6.544;2023-07-09T05:49:46;101367.09;;;30.24;49.30
14117;BME280;7137;51.436;6.544;2023-07-09T05:52:49;101374.09;;;31.27;46.36
14117;BME280;7137;51.436;6.544;2023-07-09T05:55:54;101371.91;;;31.55;44.34
14117;BME280;7137;51.436;6.544;2023-07-09T05:58:55;101375.19;;;32.86;41.82
14117;BME280;7137;51.436;6.544;2023-07-09T06:01:57;101382.34;;;32.71;40.83
14117;BME280;7137;51.436;6.544;2023-07-09T06:05:01;101381.81;;;33.75;39.63
14117;BME280;7137;51.436;6.544;2023-07-09T06:08:03;101383.16;;;33.11;40.06
14117;BME280;7137;51.436;6.544;2023-07-09T06:11:07;101386.78;;;33.26;40.22
14117;BME280;7137;51.436;6.544;2023-07-09T06:14:09;101388.44;;;33.58;38.82
14117;BME280;7137;51.436;6.544;2023-07-09T06:17:10;101389.41;;;34.17;38.15
14117;BME280;7137;51.436;6.544;2023-07-09T06:20:12;101385.00;;;34.31;37.64
14117;BME280;7137;51.436;6.544;2023-07-09T06:23:14;101389.19;;;34.04;38.25
14117;BME280;7137;51.436;6.544;2023-07-09T06:26:17;101387.09;;;34.44;37.23
14117;BME280;7137;51.436;6.544;2023-07-09T06:29:19;101387.28;;;34.57;37.54
14117;BME280;7137;51.436;6.544;2023-07-09T06:32:21;101391.19;;;35.63;35.52
14117;BME280;7137;51.436;6.544;2023-07-09T06:35:22;101389.75;;;36.51;34.17
14117;BME280;7137;51.436;6.544;2023-07-09T06:38:24;101388.34;;;37.23;33.00
14117;BME280;7137;51.436;6.544;2023-07-09T06:41:28;101385.72;;;36.12;34.44
14117;BME280;7137;51.436;6.544;2023-07-09T06:44:29;101398.53;;;36.94;33.21
14117;BME280;7137;51.436;6.544;2023-07-09T06:47:32;101407.91;;;36.37;34.21
14117;BME280;7137;51.436;6.544;2023-07-09T06:50:34;101407.13;;;36.91;33.53
14117;BME280;7137;51.436;6.544;2023-07-09T06:53:36;101403.22;;;39.35;29.30
14117;BME280;7137;51.436;6.544;2023-07-09T06:56:41;101406.22;;;39.84;28.97
14117;BME280;7137;51.436;6.544;2023-07-09T06:59:43;101404.13;;;37.40;31.15
14117;BME280;7137;51.436;6.544;2023-07-09T07:02:44;101406.03;;;39.85;28.58
14117;BME280;7137;51.436;6.544;2023-07-09T07:05:46;101402.97;;;40.18;28.38
14117;BME280;7137;51.436;6.544;2023-07-09T07:08:49;101406.78;;;40.35;27.94
14117;BME280;7137;51.436;6.544;2023-07-09T07:11:53;101406.78;;;40.54;27.43
14117;BME280;7137;51.436;6.544;2023-07-09T07:14:55;101406.78;;;40.90;27.88
14117;BME280;7137;51.436;6.544;2023-07-09T07:17:57;101405.94;;;40.90;26.99
14117;BME280;7137;51.436;6.544;2023-07-09T07:20:59;101401.06;;;40.74;27.43
14117;BME280;7137;51.436;6.544;2023-07-09T07:24:00;101395.28;;;42.47;26.62
14117;BME280;7137;51.436;6.544;2023-07-09T07:27:04;101396.38;;;41.11;27.32
14117;BME280;7137;51.436;6.544;2023-07-09T07:30:07;101391.25;;;42.78;25.75
14117;BME280;7137;51.436;6.544;2023-07-09T07:33:10;101384.28;;;42.47;26.01
14117;BME280;7137;51.436;6.544;2023-07-09T07:36:12;101384.72;;;40.30;28.61
14117;BME280;7137;51.436;6.544;2023-07-09T07:39:13;101387.50;;;39.81;28.89
14117;BME280;7137;51.436;6.544;2023-07-09T07:42:17;101394.09;;;41.61;26.94
14117;BME280;7137;51.436;6.544;2023-07-09T07:45:20;101402.59;;;43.55;24.41
14117;BME280;7137;51.436;6.544;2023-07-09T07:48:22;101395.66;;;42.51;25.77
14117;BME280;7137;51.436;6.544;2023-07-09T07:51:24;101409.16;;;44.05;23.89
14117;BME280;7137;51.436;6.544;2023-07-09T07:54:25;101390.53;;;42.83;25.69
14117;BME280;7137;51.436;6.544;2023-07-09T07:57:29;101389.19;;;43.14;24.75
14117;BME280;7137;51.436;6.544;2023-07-09T08:00:31;101393.00;;;42.96;25.40
14117;BME280;7137;51.436;6.544;2023-07-09T08:03:33;101380.38;;;43.29;24.42
14117;BME280;7137;51.436;6.544;2023-07-09T08:06:34;101378.97;;;43.60;23.97
14117;BME280;7137;51.436;6.544;2023-07-09T08:09:36;101389.66;;;43.56;23.94
14117;BME280;7137;51.436;6.544;2023-07-09T08:12:40;101386.25;;;43.66;24.31
14117;BME280;7137;51.436;6.544;2023-07-09T08:15:42;101392.75;;;44.54;23.83
14117;BME280;7137;51.436;6.544;2023-07-09T08:18:46;101383.44;;;45.73;22.47
14117;BME280;7137;51.436;6.544;2023-07-09T08:21:47;101387.34;;;44.03;24.18
14117;BME280;7137;51.436;6.544;2023-07-09T08:24:49;101386.22;;;44.38;22.95
14117;BME280;7137;51.436;6.544;2023-07-09T08:27:52;101387.53;;;44.13;24.23
14117;BME280;7137;51.436;6.544;2023-07-09T08:30:54;101370.63;;;42.92;25.13
14117;BME280;7137;51.436;6.544;2023-07-09T08:33:56;101374.53;;;45.28;23.06
14117;BME280;7137;51.436;6.544;2023-07-09T08:36:57;101367.94;;;43.26;24.09
14117;BME280;7137;51.436;6.544;2023-07-09T08:39:59;101377.44;;;44.90;22.56
14117;BME280;7137;51.436;6.544;2023-07-09T08:43:06;101371.34;;;45.47;21.55
14117;BME280;7137;51.436;6.544;2023-07-09T08:46:17;101372.91;;;44.79;23.07
14117;BME280;7137;51.436;6.544;2023-07-09T08:49:23;101372.09;;;45.05;22.37
14117;BME280;7137;51.436;6.544;2023-07-09T08:52:35;101369.28;;;43.91;24.53
14117;BME280;7137;51.436;6.544;2023-07-09T08:55:37;101373.22;;;45.36;22.55
14117;BME280;7137;51.436;6.544;2023-07-09T08:58:42;101368.41;;;44.72;22.74
14117;BME280;7137;51.436;6.544;2023-07-09T09:01:50;101374.94;;;42.60;24.52
14117;BME280;7137;51.436;6.544;2023-07-09T09:04:52;101369.06;;;43.42;23.25
14117;BME280;7137;51.436;6.544;2023-07-09T09:07:57;101368.06;;;43.03;24.35
14117;BME280;7137;51.436;6.544;2023-07-09T09:11:10;101352.69;;;43.69;23.53
14117;BME280;7137;51.436;6.544;2023-07-09T09:14:26;101354.03;;;44.05;23.84
14117;BME280;7137;51.436;6.544;2023-07-09T09:17:27;101350.69;;;45.49;22.40
14117;BME280;7137;51.436;6.544;2023-07-09T09:20:31;101349.13;;;44.99;23.33
14117;BME280;7137;51.436;6.544;2023-07-09T09:23:38;101342.22;;;45.29;21.82
14117;BME280;7137;51.436;6.544;2023-07-09T09:26:42;101337.91;;;45.75;20.41
14117;BME280;7137;51.436;6.544;2023-07-09T09:29:45;101333.31;;;45.59;22.00
14117;BME280;7137;51.436;6.544;2023-07-09T09:32:50;101329.56;;;45.33;21.42
14117;BME280;7137;51.436;6.544;2023-07-09T09:36:02;101337.38;;;45.83;20.54
14117;BME280;7137;51.436;6.544;2023-07-09T09:39:09;101333.72;;;45.73;21.02
14117;BME280;7137;51.436;6.544;2023-07-09T09:42:11;101339.47;;;48.37;17.64
14117;BME280;7137;51.436;6.544;2023-07-09T09:45:16;101325.63;;;47.07;20.04
14117;BME280;7137;51.436;6.544;2023-07-09T09:48:20;101335.00;;;47.11;19.52
14117;BME280;7137;51.436;6.544;2023-07-09T09:51:28;101342.78;;;47.29;19.48
14117;BME280;7137;51.436;6.544;2023-07-09T09:54:31;101327.94;;;44.78;20.88
14117;BME280;7137;51.436;6.544;2023-07-09T09:57:32;101321.78;;;44.22;22.63
14117;BME280;7137;51.436;6.544;2023-07-09T10:00:36;101318.88;;;45.10;22.10
14117;BME280;7137;51.436;6.544;2023-07-09T10:03:38;101324.47;;;45.57;21.29
14117;BME280;7137;51.436;6.544;2023-07-09T10:06:42;101311.69;;;44.82;20.73
14117;BME280;7137;51.436;6.544;2023-07-09T10:09:48;101312.59;;;41.97;23.86
14117;BME280;7137;51.436;6.544;2023-07-09T10:12:50;101292.19;;;42.33;23.19
14117;BME280;7137;51.436;6.544;2023-07-09T10:16:03;101303.94;;;44.08;22.41
14117;BME280;7137;51.436;6.544;2023-07-09T10:19:14;101302.63;;;42.19;24.84
14117;BME280;7137;51.436;6.544;2023-07-09T10:22:24;101304.34;;;43.39;24.91
14117;BME280;7137;51.436;6.544;2023-07-09T10:25:35;101309.16;;;43.32;23.38
14117;BME280;7137;51.436;6.544;2023-07-09T10:29:00;101311.13;;;42.06;23.92
14117;BME280;7137;51.436;6.544;2023-07-09T10:32:17;101315.97;;;43.63;22.80
14117;BME280;7137;51.436;6.544;2023-07-09T10:35:28;101318.50;;;43.14;23.56
14117;BME280;7137;51.436;6.544;2023-07-09T10:38:41;101309.03;;;41.08;25.04
14117;BME280;7137;51.436;6.544;2023-07-09T10:41:49;101314.38;;;39.44;29.01
14117;BME280;7137;51.436;6.544;2023-07-09T10:44:56;101304.41;;;39.93;27.43
14117;BME280;7137;51.436;6.544;2023-07-09T10:48:03;101295.72;;;40.51;25.59
14117;BME280;7137;51.436;6.544;2023-07-09T10:51:13;101290.25;;;39.96;26.84
14117;BME280;7137;51.436;6.544;2023-07-09T10:54:27;101291.06;;;40.40;26.37
14117;BME280;7137;51.436;6.544;2023-07-09T10:57:38;101278.72;;;39.76;26.11
14117;BME280;7137;51.436;6.544;2023-07-09T11:00:44;101273.88;;;39.03;27.89
14117;BME280;7137;51.436;6.544;2023-07-09T11:03:50;101275.13;;;38.31;29.16
14117;BME280;7137;51.436;6.544;2023-07-09T11:06:56;101268.25;;;38.22;28.96
14117;BME280;7137;51.436;6.544;2023-07-09T11:10:02;101260.47;;;38.12;29.97
14117;BME280;7137;51.436;6.544;2023-07-09T11:13:12;101255.91;;;37.99;28.87
14117;BME280;7137;51.436;6.544;2023-07-09T11:16:22;101255.81;;;38.26;28.68
14117;BME280;7137;51.436;6.544;2023-07-09T11:19:27;101257.28;;;38.28;28.26
14117;BME280;7137;51.436;6.544;2023-07-09T11:22:36;101253.53;;;38.23;29.46
14117;BME280;7137;51.436;6.544;2023-07-09T11:25:43;101242.19;;;38.13;29.21
14117;BME280;7137;51.436;6.544;2023-07-09T11:28:47;101237.16;;;38.23;28.75
14117;BME280;7137;51.436;6.544;2023-07-09T11:31:51;101233.81;;;38.21;27.72
14117;BME280;7137;51.436;6.544;2023-07-09T11:35:06;101243.78;;;39.03;27.60
14117;BME280;7137;51.436;6.544;2023-07-09T11:38:12;101236.88;;;39.01;27.60
14117;BME280;7137;51.436;6.544;2023-07-09T11:41:34;101235.78;;;39.33;26.82
14117;BME280;7137;51.436;6.544;2023-07-09T11:44:46;101237.16;;;39.42;26.53
14117;BME280;7137;51.436;6.544;2023-07-09T11:47:54;101237.19;;;39.79;27.54
14117;BME280;7137;51.436;6.544;2023-07-09T11:51:08;101238.19;;;39.41;27.01
14117;BME280;7137;51.436;6.544;2023-07-09T11:54:12;101240.41;;;39.33;28.76
14117;BME280;7137;51.436;6.544;2023-07-09T11:57:14;101250.63;;;39.19;27.58
14117;BME280;7137;51.436;6.544;2023-07-09T12:00:16;101251.75;;;38.42;28.42
14117;BME280;7137;51.436;6.544;2023-07-09T12:03:19;101251.81;;;38.28;28.22
14117;BME280;7137;51.436;6.544;2023-07-09T12:06:25;101254.34;;;38.68;28.01
14117;BME280;7137;51.436;6.544;2023-07-09T12:09:30;101253.50;;;38.29;29.27
14117;BME280;7137;51.436;6.544;2023-07-09T12:12:32;101259.47;;;38.51;27.56
14117;BME280;7137;51.436;6.544;2023-07-09T12:15:34;101252.00;;;38.34;28.21
14117;BME280;7137;51.436;6.544;2023-07-09T12:18:35;101255.66;;;38.90;27.88
14117;BME280;7137;51.436;6.544;2023-07-09T12:21:40;101257.56;;;38.58;28.23
14117;BME280;7137;51.436;6.544;2023-07-09T12:24:46;101248.16;;;38.48;28.73
14117;BME280;7137;51.436;6.544;2023-07-09T12:27:48;101246.25;;;39.11;28.05
14117;BME280;7137;51.436;6.544;2023-07-09T12:30:52;101240.81;;;39.98;27.13
14117;BME280;7137;51.436;6.544;2023-07-09T12:33:55;101235.22;;;39.86;26.49
14117;BME280;7137;51.436;6.544;2023-07-09T12:36:59;101231.88;;;39.41;27.66
14117;BME280;7137;51.436;6.544;2023-07-09T12:40:00;101226.31;;;39.04;27.40
14117;BME280;7137;51.436;6.544;2023-07-09T12:43:03;101227.09;;;39.36;26.83
14117;BME280;7137;51.436;6.544;2023-07-09T12:46:05;101214.47;;;39.78;26.65
14117;BME280;7137;51.436;6.544;2023-07-09T12:49:07;101217.59;;;39.64;27.10
14117;BME280;7137;51.436;6.544;2023-07-09T12:52:15;101216.66;;;39.88;27.87
14117;BME280;7137;51.436;6.544;2023-07-09T12:55:19;101209.44;;;39.75;27.13
14117;BME280;7137;51.436;6.544;2023-07-09T12:58:23;101211.78;;;38.85;28.01
14117;BME280;7137;51.436;6.544;2023-07-09T13:01:25;101200.84;;;39.54;28.36
14117;BME280;7137;51.436;6.544;2023-07-09T13:04:29;101204.69;;;39.71;28.55
14117;BME280;7137;51.436;6.544;2023-07-09T13:07:35;101192.72;;;38.41;28.68
14117;BME280;7137;51.436;6.544;2023-07-09T13:10:41;101196.97;;;37.72;29.76
14117;BME280;7137;51.436;6.544;2023-07-09T13:13:54;101185.59;;;37.95;30.33
14117;BME280;7137;51.436;6.544;2023-07-09T13:17:02;101180.50;;;36.61;32.12
14117;BME280;7137;51.436;6.544;2023-07-09T13:20:04;101175.78;;;36.28;33.21
14117;BME280;7137;51.436;6.544;2023-07-09T13:23:10;101170.34;;;36.22;33.21
14117;BME280;7137;51.436;6.544;2023-07-09T13:26:13;101155.03;;;36.14;32.92
14117;BME280;7137;51.436;6.544;2023-07-09T13:29:16;101163.41;;;36.06;32.78
14117;BME280;7137;51.436;6.544;2023-07-09T13:32:18;101159.66;;;35.66;33.01
14117;BME280;7137;51.436;6.544;2023-07-09T13:35:20;101150.72;;;35.79;33.84
14117;BME280;7137;51.436;6.544;2023-07-09T13:38:24;101154.94;;;35.88;33.46
14117;BME280;7137;51.436;6.544;2023-07-09T13:41:25;101169.97;;;35.77;33.80
14117;BME280;7137;51.436;6.544;2023-07-09T13:44:29;101170.22;;;35.48;34.10
14117;BME280;7137;51.436;6.544;2023-07-09T13:47:31;101170.53;;;35.73;33.83
14117;BME280;7137;51.436;6.544;2023-07-09T13:50:33;101177.28;;;35.83;34.64
14117;BME280;7137;51.436;6.544;2023-07-09T13:53:36;101177.88;;;35.09;33.67
14117;BME280;7137;51.436;6.544;2023-07-09T13:56:38;101170.13;;;34.85;33.42
14117;BME280;7137;51.436;6.544;2023-07-09T13:59:39;101189.47;;;34.54;33.61
14117;BME280;7137;51.436;6.544;2023-07-09T14:02:42;101178.09;;;33.78;34.63
14117;BME280;7137;51.436;6.544;2023-07-09T14:05:43;101167.44;;;33.77;35.10
14117;BME280;7137;51.436;6.544;2023-07-09T14:08:47;101174.22;;;33.66;36.45
14117;BME280;7137;51.436;6.544;2023-07-09T14:11:50;101184.09;;;33.59;36.24
14117;BME280;7137;51.436;6.544;2023-07-09T14:14:53;101196.44;;;33.61;35.79
14117;BME280;7137;51.436;6.544;2023-07-09T14:17:54;101199.78;;;33.63;36.59
14117;BME280;7137;51.436;6.544;2023-07-09T14:20:57;101205.97;;;33.72;35.92
14117;BME280;7137;51.436;6.544;2023-07-09T14:24:00;101234.53;;;33.07;40.41
14117;BME280;7137;51.436;6.544;2023-07-09T14:27:04;101256.75;;;31.54;49.96
14117;BME280;7137;51.436;6.544;2023-07-09T14:30:08;101274.06;;;30.62;59.37
14117;BME280;7137;51.436;6.544;2023-07-09T14:33:13;101284.44;;;29.37;62.96
14117;BME280;7137;51.436;6.544;2023-07-09T14:36:15;101309.19;;;29.15;67.60
14117;BME280;7137;51.436;6.544;2023-07-09T14:39:18;101311.81;;;28.79;68.59
14117;BME280;7137;51.436;6.544;2023-07-09T14:42:19;101307.69;;;28.57;69.83
14117;BME280;7137;51.436;6.544;2023-07-09T14:45:24;101348.31;;;28.27;67.24
14117;BME280;7137;51.436;6.544;2023-07-09T14:48:28;101417.47;;;28.15;67.14
14117;BME280;7137;51.436;6.544;2023-07-09T14:51:30;101450.91;;;27.93;72.05
14117;BME280;7137;51.436;6.544;2023-07-09T14:54:33;101472.06;;;27.58;71.35
14117;BME280;7137;51.436;6.544;2023-07-09T14:57:34;101522.38;;;27.15;71.20
14117;BME280;7137;51.436;6.544;2023-07-09T15:00:36;101541.47;;;26.61;74.36
14117;BME280;7137;51.436;6.544;2023-07-09T15:03:38;101554.31;;;26.46;78.47
14117;BME280;7137;51.436;6.544;2023-07-09T15:06:39;101549.50;;;25.76;88.63
14117;BME280;7137;51.436;6.544;2023-07-09T15:09:42;101544.84;;;24.66;100.00
14117;BME280;7137;51.436;6.544;2023-07-09T15:12:45;101556.63;;;24.64;100.00
14117;BME280;7137;51.436;6.544;2023-07-09T15:15:47;101540.59;;;24.64;100.00
14117;BME280;7137;51.436;6.544;2023-07-09T15:18:49;101505.63;;;24.78;100.00
14117;BME280;7137;51.436;6.544;2023-07-09T15:21:50;101459.69;;;24.95;100.00
14117;BME280;7137;51.436;6.544;2023-07-09T15:24:54;101466.63;;;25.20;100.00
14117;BME280;7137;51.436;6.544;2023-07-09T15:27:56;101453.13;;;25.10;100.00
14117;BME280;7137;51.436;6.544;2023-07-09T15:30:58;101461.94;;;25.33;100.00
14117;BME280;7137;51.436;6.544;2023-07-09T15:34:00;101449.34;;;25.24;100.00
14117;BME280;7137;51.436;6.544;2023-07-09T15:37:10;101428.59;;;24.94;100.00
14117;BME280;7137;51.436;6.544;2023-07-09T15:40:18;101422.50;;;25.14;100.00
14117;BME280;7137;51.436;6.544;2023-07-09T15:43:20;101415.31;;;25.04;100.00
14117;BME280;7137;51.436;6.544;2023-07-09T15:46:22;101385.44;;;24.76;100.00
14117;BME280;7137;51.436;6.544;2023-07-09T15:49:24;101378.06;;;24.69;100.00
14117;BME280;7137;51.436;6.544;2023-07-09T15:52:26;101358.88;;;24.64;100.00
14117;BME280;7137;51.436;6.544;2023-07-09T15:55:29;101349.63;;;24.79;100.00
14117;BME280;7137;51.436;6.544;2023-07-09T15:58:38;101336.88;;;24.60;100.00
14117;BME280;7137;51.436;6.544;2023-07-09T16:01:41;101339.81;;;24.57;100.00
14117;BME280;7137;51.436;6.544;2023-07-09T16:04:43;101349.75;;;24.77;100.00
14117;BME280;7137;51.436;6.544;2023-07-09T16:07:45;101367.84;;;24.74;100.00
14117;BME280;7137;51.436;6.544;2023-07-09T16:10:48;101393.81;;;24.94;100.00
14117;BME280;7137;51.436;6.544;2023-07-09T16:13:50;101421.19;;;25.09;100.00